sensor_id;sensor_type;location;lat;lon;timestamp;P1;durP1;ratioP1;P2;durP2;ratioP2
9256;SDS011;4665;51.368;6.782;2023-06-10T00:01:57;5.60;;;5.20;;
9256;SDS011;4665;51.368;6.782;2023-06-10T00:04:24;5.30;;;5.00;;
9256;SDS011;4665;51.368;6.782;2023-06-10T00:06:50;9.90;;;5.50;;
9256;SDS011;4665;51.368;6.782;2023-06-10T00:09:16;5.20;;;4.90;;
9256;SDS011;4665;51.368;6.782;2023-06-10T00:11:43;5.70;;;5.20;;
9256;SDS011;4665;51.368;6.782;2023-06-10T00:14:09;5.30;;;5.00;;
9256;SDS011;4665;51.368;6.782;2023-06-10T00:16:35;6.00;;;5.40;;
9256;SDS011;4665;51.368;6.782;2023-06-10T00:19:02;5.90;;;5.50;;
9256;SDS011;4665;51.368;6.782;2023-06-10T00:21:29;4.90;;;4.60;;
9256;SDS011;4665;51.368;6.782;2023-06-10T00:23:55;4.97;;;4.67;;
9256;SDS011;4665;51.368;6.782;2023-06-10T00:26:21;5.97;;;5.40;;
9256;SDS011;4665;51.368;6.782;2023-06-10T00:28:48;5.67;;;5.27;;
9256;SDS011;4665;51.368;6.782;2023-06-10T00:31:13;7.23;;;5.60;;
9256;SDS011;4665;51.368;6.782;2023-06-10T00:33:39;5.40;;;4.90;;
9256;SDS011;4665;51.368;6.782;2023-06-10T00:36:04;6.00;;;5.50;;
9256;SDS011;4665;51.368;6.782;2023-06-10T00:38:30;5.90;;;5.40;;
9256;SDS011;4665;51.368;6.782;2023-06-10T00:40:56;5.70;;;5.30;;
9256;SDS011;4665;51.368;6.782;2023-06-10T00:43:22;8.07;;;5.53;;
9256;SDS011;4665;51.368;6.782;2023-06-10T00:45:47;6.00;;;5.50;;
9256;SDS011;4665;51.368;6.782;2023-06-10T00:48:16;5.67;;;5.17;;
9256;SDS011;4665;51.368;6.782;2023-06-10T00:50:42;5.50;;;5.20;;
9256;SDS011;4665;51.368;6.782;2023-06-10T00:53:08;5.60;;;5.20;;
9256;SDS011;4665;51.368;6.782;2023-06-10T00:55:34;6.10;;;5.50;;
9256;SDS011;4665;51.368;6.782;2023-06-10T00:58:04;6.57;;;6.00;;
9256;SDS011;4665;51.368;6.782;2023-06-10T01:00:29;6.00;;;5.50;;
9256;SDS011;4665;51.368;6.782;2023-06-10T01:02:55;6.37;;;5.87;;
9256;SDS011;4665;51.368;6.782;2023-06-10T01:05:20;6.40;;;5.80;;
9256;SDS011;4665;51.368;6.782;2023-06-10T01:08:07;6.23;;;5.73;;
9256;SDS011;4665;51.368;6.782;2023-06-10T01:10:45;5.97;;;5.47;;
9256;SDS011;4665;51.368;6.782;2023-06-10T01:13:15;6.80;;;6.17;;
9256;SDS011;4665;51.368;6.782;2023-06-10T01:15:41;6.43;;;5.93;;
9256;SDS011;4665;51.368;6.782;2023-06-10T01:18:09;6.23;;;5.70;;
9256;SDS011;4665;51.368;6.782;2023-06-10T01:20:40;6.73;;;6.10;;
9256;SDS011;4665;51.368;6.782;2023-06-10T01:23:08;6.20;;;5.70;;
9256;SDS011;4665;51.368;6.782;2023-06-10T01:25:39;6.40;;;5.80;;
9256;SDS011;4665;51.368;6.782;2023-06-10T01:33:10;6.03;;;5.63;;
9256;SDS011;4665;51.368;6.782;2023-06-10T01:35:41;6.40;;;5.80;;
9256;SDS011;4665;51.368;6.782;2023-06-10T01:38:09;6.30;;;5.80;;
9256;SDS011;4665;51.368;6.782;2023-06-10T01:40:36;6.23;;;5.70;;
9256;SDS011;4665;51.368;6.782;2023-06-10T01:43:01;6.73;;;6.13;;
9256;SDS011;4665;51.368;6.782;2023-06-10T01:45:27;6.23;;;5.63;;
9256;SDS011;4665;51.368;6.782;2023-06-10T01:47:52;5.97;;;5.50;;
9256;SDS011;4665;51.368;6.782;2023-06-10T01:50:18;6.57;;;6.07;;
9256;SDS011;4665;51.368;6.782;2023-06-10T01:52:44;7.57;;;6.03;;
9256;SDS011;4665;51.368;6.782;2023-06-10T01:55:10;6.63;;;6.03;;
9256;SDS011;4665;51.368;6.782;2023-06-10T01:57:36;6.07;;;5.63;;
9256;SDS011;4665;51.368;6.782;2023-06-10T02:00:01;7.00;;;6.40;;
9256;SDS011;4665;51.368;6.782;2023-06-10T02:02:28;6.00;;;5.50;;
9256;SDS011;4665;51.368;6.782;2023-06-10T02:04:53;6.73;;;5.80;;
9256;SDS011;4665;51.368;6.782;2023-06-10T02:07:19;7.37;;;6.00;;
9256;SDS011;4665;51.368;6.782;2023-06-10T02:09:44;6.40;;;5.90;;
9256;SDS011;4665;51.368;6.782;2023-06-10T02:12:10;6.37;;;5.87;;
9256;SDS011;4665;51.368;6.782;2023-06-10T02:14:35;9.37;;;6.43;;
9256;SDS011;4665;51.368;6.782;2023-06-10T02:17:01;6.60;;;6.10;;
9256;SDS011;4665;51.368;6.782;2023-06-10T02:19:26;6.60;;;6.10;;
9256;SDS011;4665;51.368;6.782;2023-06-10T02:21:52;6.90;;;6.30;;
9256;SDS011;4665;51.368;6.782;2023-06-10T02:24:18;6.80;;;6.30;;
9256;SDS011;4665;51.368;6.782;2023-06-10T02:26:45;7.03;;;6.53;;
9256;SDS011;4665;51.368;6.782;2023-06-10T02:29:12;6.70;;;6.10;;
9256;SDS011;4665;51.368;6.782;2023-06-10T02:31:38;8.57;;;6.40;;
9256;SDS011;4665;51.368;6.782;2023-06-10T02:34:04;6.70;;;6.20;;
9256;SDS011;4665;51.368;6.782;2023-06-10T02:36:30;6.67;;;6.10;;
9256;SDS011;4665;51.368;6.782;2023-06-10T02:38:56;6.70;;;6.00;;
9256;SDS011;4665;51.368;6.782;2023-06-10T02:41:22;6.33;;;5.83;;
9256;SDS011;4665;51.368;6.782;2023-06-10T02:43:50;6.20;;;5.80;;
9256;SDS011;4665;51.368;6.782;2023-06-10T02:46:23;6.80;;;6.20;;
9256;SDS011;4665;51.368;6.782;2023-06-10T02:48:49;6.70;;;6.10;;
9256;SDS011;4665;51.368;6.782;2023-06-10T02:51:16;7.00;;;6.40;;
9256;SDS011;4665;51.368;6.782;2023-06-10T02:53:42;6.63;;;6.13;;
9256;SDS011;4665;51.368;6.782;2023-06-10T02:56:08;6.70;;;6.20;;
9256;SDS011;4665;51.368;6.782;2023-06-10T02:58:33;6.90;;;6.40;;
9256;SDS011;4665;51.368;6.782;2023-06-10T03:00:58;7.00;;;6.40;;
9256;SDS011;4665;51.368;6.782;2023-06-10T03:03:24;7.13;;;6.53;;
9256;SDS011;4665;51.368;6.782;2023-06-10T03:05:50;6.83;;;6.33;;
9256;SDS011;4665;51.368;6.782;2023-06-10T03:08:16;7.43;;;6.83;;
9256;SDS011;4665;51.368;6.782;2023-06-10T03:10:41;7.03;;;6.50;;
9256;SDS011;4665;51.368;6.782;2023-06-10T03:13:07;7.20;;;6.70;;
9256;SDS011;4665;51.368;6.782;2023-06-10T03:15:32;7.17;;;6.57;;
9256;SDS011;4665;51.368;6.782;2023-06-10T03:18:01;7.37;;;6.70;;
9256;SDS011;4665;51.368;6.782;2023-06-10T03:20:29;7.70;;;7.00;;
9256;SDS011;4665;51.368;6.782;2023-06-10T03:22:55;7.43;;;6.80;;
9256;SDS011;4665;51.368;6.782;2023-06-10T03:25:20;6.90;;;6.37;;
9256;SDS011;4665;51.368;6.782;2023-06-10T03:27:46;7.27;;;6.67;;
9256;SDS011;4665;51.368;6.782;2023-06-10T03:30:12;7.20;;;6.50;;
9256;SDS011;4665;51.368;6.782;2023-06-10T03:32:38;7.30;;;6.70;;
9256;SDS011;4665;51.368;6.782;2023-06-10T03:35:04;6.83;;;6.13;;
9256;SDS011;4665;51.368;6.782;2023-06-10T03:37:30;7.57;;;6.97;;
9256;SDS011;4665;51.368;6.782;2023-06-10T03:39:55;6.53;;;6.13;;
9256;SDS011;4665;51.368;6.782;2023-06-10T03:42:21;7.77;;;7.10;;
9256;SDS011;4665;51.368;6.782;2023-06-10T03:44:46;7.40;;;6.73;;
9256;SDS011;4665;51.368;6.782;2023-06-10T03:47:12;7.50;;;6.80;;
9256;SDS011;4665;51.368;6.782;2023-06-10T03:49:38;7.40;;;6.70;;
9256;SDS011;4665;51.368;6.782;2023-06-10T03:52:05;6.87;;;6.37;;
9256;SDS011;4665;51.368;6.782;2023-06-10T03:54:31;7.20;;;6.60;;
9256;SDS011;4665;51.368;6.782;2023-06-10T03:56:59;8.43;;;7.63;;
9256;SDS011;4665;51.368;6.782;2023-06-10T03:59:25;7.40;;;6.80;;
9256;SDS011;4665;51.368;6.782;2023-06-10T04:01:50;7.33;;;6.73;;
9256;SDS011;4665;51.368;6.782;2023-06-10T04:04:16;7.50;;;6.80;;
9256;SDS011;4665;51.368;6.782;2023-06-10T04:06:41;7.93;;;7.23;;
9256;SDS011;4665;51.368;6.782;2023-06-10T04:09:08;7.77;;;6.83;;
9256;SDS011;4665;51.368;6.782;2023-06-10T04:11:35;8.00;;;7.30;;
9256;SDS011;4665;51.368;6.782;2023-06-10T04:14:00;7.93;;;7.23;;
9256;SDS011;4665;51.368;6.782;2023-06-10T04:16:26;8.80;;;8.00;;
9256;SDS011;4665;51.368;6.782;2023-06-10T04:18:52;7.57;;;6.90;;
9256;SDS011;4665;51.368;6.782;2023-06-10T04:21:17;8.23;;;7.33;;
9256;SDS011;4665;51.368;6.782;2023-06-10T04:23:43;8.47;;;7.70;;
9256;SDS011;4665;51.368;6.782;2023-06-10T04:26:08;9.40;;;7.23;;
9256;SDS011;4665;51.368;6.782;2023-06-10T04:28:36;8.13;;;7.33;;
9256;SDS011;4665;51.368;6.782;2023-06-10T04:31:01;8.50;;;7.70;;
9256;SDS011;4665;51.368;6.782;2023-06-10T04:33:28;7.97;;;7.37;;
9256;SDS011;4665;51.368;6.782;2023-06-10T04:35:54;8.87;;;8.07;;
9256;SDS011;4665;51.368;6.782;2023-06-10T04:38:20;9.93;;;7.77;;
9256;SDS011;4665;51.368;6.782;2023-06-10T04:40:46;8.60;;;7.80;;
9256;SDS011;4665;51.368;6.782;2023-06-10T04:43:11;8.67;;;7.40;;
9256;SDS011;4665;51.368;6.782;2023-06-10T04:45:38;8.27;;;7.50;;
9256;SDS011;4665;51.368;6.782;2023-06-10T04:48:03;9.10;;;8.17;;
9256;SDS011;4665;51.368;6.782;2023-06-10T04:50:29;8.40;;;7.70;;
9256;SDS011;4665;51.368;6.782;2023-06-10T04:52:54;8.53;;;7.73;;
9256;SDS011;4665;51.368;6.782;2023-06-10T04:55:22;8.57;;;7.90;;
9256;SDS011;4665;51.368;6.782;2023-06-10T04:57:48;8.73;;;7.93;;
9256;SDS011;4665;51.368;6.782;2023-06-10T05:00:13;8.83;;;8.03;;
9256;SDS011;4665;51.368;6.782;2023-06-10T05:02:39;7.90;;;7.20;;
9256;SDS011;4665;51.368;6.782;2023-06-10T05:05:04;9.40;;;8.50;;
9256;SDS011;4665;51.368;6.782;2023-06-10T05:07:30;11.33;;;7.93;;
9256;SDS011;4665;51.368;6.782;2023-06-10T05:09:56;7.70;;;7.10;;
9256;SDS011;4665;51.368;6.782;2023-06-10T05:12:22;9.47;;;8.40;;
9256;SDS011;4665;51.368;6.782;2023-06-10T05:14:47;8.40;;;7.60;;
9256;SDS011;4665;51.368;6.782;2023-06-10T05:17:13;9.67;;;8.77;;
9256;SDS011;4665;51.368;6.782;2023-06-10T05:19:38;8.50;;;7.80;;
9256;SDS011;4665;51.368;6.782;2023-06-10T05:22:04;9.13;;;8.30;;
9256;SDS011;4665;51.368;6.782;2023-06-10T05:24:30;9.60;;;8.70;;
9256;SDS011;4665;51.368;6.782;2023-06-10T05:26:55;9.13;;;8.27;;
9256;SDS011;4665;51.368;6.782;2023-06-10T05:29:21;8.77;;;8.07;;
9256;SDS011;4665;51.368;6.782;2023-06-10T05:31:46;8.73;;;7.90;;
9256;SDS011;4665;51.368;6.782;2023-06-10T05:34:12;8.30;;;7.50;;
9256;SDS011;4665;51.368;6.782;2023-06-10T05:36:37;8.90;;;8.10;;
9256;SDS011;4665;51.368;6.782;2023-06-10T05:39:03;8.70;;;7.90;;
9256;SDS011;4665;51.368;6.782;2023-06-10T05:41:28;8.83;;;8.00;;
9256;SDS011;4665;51.368;6.782;2023-06-10T05:43:53;8.80;;;8.03;;
9256;SDS011;4665;51.368;6.782;2023-06-10T05:46:19;7.80;;;7.10;;
9256;SDS011;4665;51.368;6.782;2023-06-10T05:48:45;7.67;;;6.97;;
9256;SDS011;4665;51.368;6.782;2023-06-10T05:51:11;8.43;;;7.80;;
9256;SDS011;4665;51.368;6.782;2023-06-10T05:53:36;6.97;;;6.47;;
9256;SDS011;4665;51.368;6.782;2023-06-10T05:56:01;7.83;;;7.13;;
9256;SDS011;4665;51.368;6.782;2023-06-10T05:58:27;9.93;;;7.70;;
9256;SDS011;4665;51.368;6.782;2023-06-10T06:00:52;7.87;;;7.27;;
9256;SDS011;4665;51.368;6.782;2023-06-10T06:03:18;9.20;;;7.53;;
9256;SDS011;4665;51.368;6.782;2023-06-10T06:05:44;7.30;;;6.70;;
9256;SDS011;4665;51.368;6.782;2023-06-10T06:08:11;7.60;;;6.90;;
9256;SDS011;4665;51.368;6.782;2023-06-10T06:10:38;7.30;;;6.70;;
9256;SDS011;4665;51.368;6.782;2023-06-10T06:13:03;7.80;;;7.13;;
9256;SDS011;4665;51.368;6.782;2023-06-10T06:15:29;8.33;;;7.20;;
9256;SDS011;4665;51.368;6.782;2023-06-10T06:17:54;7.00;;;6.40;;
9256;SDS011;4665;51.368;6.782;2023-06-10T06:20:21;7.57;;;6.87;;
9256;SDS011;4665;51.368;6.782;2023-06-10T06:22:47;7.47;;;6.77;;
9256;SDS011;4665;51.368;6.782;2023-06-10T06:25:13;7.73;;;6.90;;
9256;SDS011;4665;51.368;6.782;2023-06-10T06:27:38;9.37;;;6.87;;
9256;SDS011;4665;51.368;6.782;2023-06-10T06:30:04;7.40;;;6.80;;
9256;SDS011;4665;51.368;6.782;2023-06-10T06:32:30;7.03;;;6.33;;
9256;SDS011;4665;51.368;6.782;2023-06-10T06:34:55;8.37;;;6.73;;
9256;SDS011;4665;51.368;6.782;2023-06-10T06:37:21;8.03;;;7.37;;
9256;SDS011;4665;51.368;6.782;2023-06-10T06:39:49;6.90;;;6.30;;
9256;SDS011;4665;51.368;6.782;2023-06-10T06:42:18;6.93;;;6.33;;
9256;SDS011;4665;51.368;6.782;2023-06-10T06:44:44;6.87;;;6.27;;
9256;SDS011;4665;51.368;6.782;2023-06-10T06:47:10;6.73;;;6.23;;
9256;SDS011;4665;51.368;6.782;2023-06-10T06:49:36;8.27;;;6.50;;
9256;SDS011;4665;51.368;6.782;2023-06-10T06:52:01;7.30;;;6.43;;
9256;SDS011;4665;51.368;6.782;2023-06-10T06:54:27;6.20;;;5.67;;
9256;SDS011;4665;51.368;6.782;2023-06-10T06:56:53;6.27;;;5.83;;
9256;SDS011;4665;51.368;6.782;2023-06-10T06:59:18;5.67;;;5.27;;
9256;SDS011;4665;51.368;6.782;2023-06-10T07:01:46;6.20;;;5.67;;
9256;SDS011;4665;51.368;6.782;2023-06-10T07:04:14;6.60;;;6.10;;
9256;SDS011;4665;51.368;6.782;2023-06-10T07:06:40;7.07;;;6.10;;
9256;SDS011;4665;51.368;6.782;2023-06-10T07:09:07;6.63;;;6.03;;
9256;SDS011;4665;51.368;6.782;2023-06-10T07:11:34;5.97;;;5.47;;
9256;SDS011;4665;51.368;6.782;2023-06-10T07:13:59;7.87;;;6.20;;
9256;SDS011;4665;51.368;6.782;2023-06-10T07:16:25;6.27;;;5.67;;
9256;SDS011;4665;51.368;6.782;2023-06-10T07:18:52;5.63;;;5.17;;
9256;SDS011;4665;51.368;6.782;2023-06-10T07:21:17;6.47;;;5.97;;
9256;SDS011;4665;51.368;6.782;2023-06-10T07:23:43;6.73;;;6.00;;
9256;SDS011;4665;51.368;6.782;2023-06-10T07:26:09;5.53;;;5.13;;
9256;SDS011;4665;51.368;6.782;2023-06-10T07:28:36;5.40;;;5.00;;
9256;SDS011;4665;51.368;6.782;2023-06-10T07:31:02;6.87;;;5.30;;
9256;SDS011;4665;51.368;6.782;2023-06-10T07:33:28;5.73;;;5.23;;
9256;SDS011;4665;51.368;6.782;2023-06-10T07:35:54;5.87;;;5.37;;
9256;SDS011;4665;51.368;6.782;2023-06-10T07:38:19;6.10;;;5.17;;
9256;SDS011;4665;51.368;6.782;2023-06-10T07:40:45;6.10;;;5.60;;
9256;SDS011;4665;51.368;6.782;2023-06-10T07:43:11;6.33;;;5.17;;
9256;SDS011;4665;51.368;6.782;2023-06-10T07:45:36;6.20;;;5.60;;
9256;SDS011;4665;51.368;6.782;2023-06-10T07:48:02;5.27;;;4.87;;
9256;SDS011;4665;51.368;6.782;2023-06-10T07:50:27;5.50;;;5.07;;
9256;SDS011;4665;51.368;6.782;2023-06-10T07:52:53;5.57;;;5.07;;
9256;SDS011;4665;51.368;6.782;2023-06-10T07:55:18;5.90;;;5.03;;
9256;SDS011;4665;51.368;6.782;2023-06-10T07:57:44;5.57;;;5.07;;
9256;SDS011;4665;51.368;6.782;2023-06-10T08:00:09;6.13;;;5.13;;
9256;SDS011;4665;51.368;6.782;2023-06-10T08:02:35;5.67;;;5.17;;
9256;SDS011;4665;51.368;6.782;2023-06-10T08:05:01;5.45;;;5.05;;
9256;SDS011;4665;51.368;6.782;2023-06-10T08:07:26;6.17;;;5.50;;
9256;SDS011;4665;51.368;6.782;2023-06-10T08:09:52;5.50;;;5.10;;
9256;SDS011;4665;51.368;6.782;2023-06-10T08:12:18;7.53;;;5.27;;
9256;SDS011;4665;51.368;6.782;2023-06-10T08:14:43;5.87;;;5.30;;
9256;SDS011;4665;51.368;6.782;2023-06-10T08:17:09;10.63;;;5.30;;
9256;SDS011;4665;51.368;6.782;2023-06-10T08:19:34;5.55;;;5.05;;
9256;SDS011;4665;51.368;6.782;2023-06-10T08:22:00;5.80;;;5.25;;
9256;SDS011;4665;51.368;6.782;2023-06-10T08:24:25;5.72;;;5.30;;
9256;SDS011;4665;51.368;6.782;2023-06-10T08:26:50;6.38;;;5.03;;
9256;SDS011;4665;51.368;6.782;2023-06-10T08:29:16;5.40;;;4.95;;
9256;SDS011;4665;51.368;6.782;2023-06-10T08:31:42;5.70;;;5.30;;
9256;SDS011;4665;51.368;6.782;2023-06-10T08:34:08;9.00;;;6.50;;
9256;SDS011;4665;51.368;6.782;2023-06-10T08:36:34;4.78;;;4.38;;
9256;SDS011;4665;51.368;6.782;2023-06-10T08:39:00;5.97;;;5.05;;
9256;SDS011;4665;51.368;6.782;2023-06-10T08:41:26;6.53;;;5.45;;
9256;SDS011;4665;51.368;6.782;2023-06-10T08:46:24;6.22;;;5.50;;
9256;SDS011;4665;51.368;6.782;2023-06-10T08:48:51;5.40;;;4.82;;
9256;SDS011;4665;51.368;6.782;2023-06-10T08:51:20;5.22;;;4.80;;
9256;SDS011;4665;51.368;6.782;2023-06-10T08:54:35;5.15;;;4.70;;
9256;SDS011;4665;51.368;6.782;2023-06-10T08:56:43;5.38;;;4.72;;
9256;SDS011;4665;51.368;6.782;2023-06-10T08:59:10;5.80;;;5.13;;
9256;SDS011;4665;51.368;6.782;2023-06-10T09:01:36;5.68;;;5.13;;
9256;SDS011;4665;51.368;6.782;2023-06-10T09:04:03;5.85;;;5.35;;
9256;SDS011;4665;51.368;6.782;2023-06-10T09:06:29;5.65;;;5.20;;
9256;SDS011;4665;51.368;6.782;2023-06-10T09:08:58;5.10;;;4.60;;
9256;SDS011;4665;51.368;6.782;2023-06-10T09:11:24;9.55;;;5.32;;
9256;SDS011;4665;51.368;6.782;2023-06-10T09:13:50;6.40;;;5.50;;
9256;SDS011;4665;51.368;6.782;2023-06-10T09:16:16;5.60;;;5.10;;
9256;SDS011;4665;51.368;6.782;2023-06-10T09:18:42;7.28;;;5.35;;
9256;SDS011;4665;51.368;6.782;2023-06-10T09:21:08;5.90;;;5.30;;
9256;SDS011;4665;51.368;6.782;2023-06-10T09:23:33;5.57;;;5.13;;
9256;SDS011;4665;51.368;6.782;2023-06-10T09:26:00;6.95;;;5.32;;
9256;SDS011;4665;51.368;6.782;2023-06-10T09:28:30;5.43;;;4.93;;
9256;SDS011;4665;51.368;6.782;2023-06-10T09:31:05;10.27;;;5.38;;
9256;SDS011;4665;51.368;6.782;2023-06-10T09:33:32;8.50;;;5.60;;
9256;SDS011;4665;51.368;6.782;2023-06-10T09:35:59;7.07;;;5.13;;
9256;SDS011;4665;51.368;6.782;2023-06-10T09:38:33;5.55;;;5.05;;
9256;SDS011;4665;51.368;6.782;2023-06-10T09:41:00;5.63;;;5.13;;
9256;SDS011;4665;51.368;6.782;2023-06-10T09:43:39;6.20;;;5.60;;
9256;SDS011;4665;51.368;6.782;2023-06-10T09:46:05;5.80;;;5.25;;
9256;SDS011;4665;51.368;6.782;2023-06-10T09:48:34;4.95;;;4.65;;
9256;SDS011;4665;51.368;6.782;2023-06-10T09:51:08;5.47;;;4.97;;
9256;SDS011;4665;51.368;6.782;2023-06-10T09:53:35;6.90;;;4.88;;
9256;SDS011;4665;51.368;6.782;2023-06-10T09:56:01;5.47;;;5.07;;
9256;SDS011;4665;51.368;6.782;2023-06-10T09:58:39;5.32;;;4.80;;
9256;SDS011;4665;51.368;6.782;2023-06-10T10:01:11;16.40;;;9.20;;
9256;SDS011;4665;51.368;6.782;2023-06-10T10:03:44;13.77;;;9.10;;
9256;SDS011;4665;51.368;6.782;2023-06-10T10:06:11;12.80;;;7.95;;
9256;SDS011;4665;51.368;6.782;2023-06-10T10:08:39;18.88;;;9.48;;
9256;SDS011;4665;51.368;6.782;2023-06-10T10:11:04;7.28;;;6.47;;
9256;SDS011;4665;51.368;6.782;2023-06-10T10:13:35;5.65;;;5.22;;
9256;SDS011;4665;51.368;6.782;2023-06-10T10:16:04;11.77;;;6.82;;
9256;SDS011;4665;51.368;6.782;2023-06-10T10:18:35;7.60;;;6.63;;
9256;SDS011;4665;51.368;6.782;2023-06-10T10:21:05;9.27;;;6.70;;
9256;SDS011;4665;51.368;6.782;2023-06-10T10:23:59;10.35;;;6.55;;
9256;SDS011;4665;51.368;6.782;2023-06-10T10:26:34;6.13;;;5.53;;
9256;SDS011;4665;51.368;6.782;2023-06-10T10:31:56;5.93;;;5.38;;
9256;SDS011;4665;51.368;6.782;2023-06-10T10:37:36;6.28;;;5.63;;
9256;SDS011;4665;51.368;6.782;2023-06-10T10:40:01;6.65;;;5.35;;
9256;SDS011;4665;51.368;6.782;2023-06-10T10:42:28;6.10;;;5.53;;
9256;SDS011;4665;51.368;6.782;2023-06-10T10:44:55;7.15;;;6.00;;
9256;SDS011;4665;51.368;6.782;2023-06-10T10:47:21;8.52;;;7.43;;
9256;SDS011;4665;51.368;6.782;2023-06-10T10:49:51;11.02;;;5.28;;
9256;SDS011;4665;51.368;6.782;2023-06-10T10:52:20;19.55;;;9.35;;
9256;SDS011;4665;51.368;6.782;2023-06-10T10:54:46;9.80;;;6.63;;
9256;SDS011;4665;51.368;6.782;2023-06-10T10:57:17;10.35;;;6.47;;
9256;SDS011;4665;51.368;6.782;2023-06-10T11:05:09;13.30;;;7.38;;
9256;SDS011;4665;51.368;6.782;2023-06-10T11:07:36;19.90;;;8.88;;
9256;SDS011;4665;51.368;6.782;2023-06-10T11:10:07;6.32;;;5.13;;
9256;SDS011;4665;51.368;6.782;2023-06-10T11:15:05;13.40;;;8.68;;
9256;SDS011;4665;51.368;6.782;2023-06-10T11:17:31;6.80;;;6.10;;
9256;SDS011;4665;51.368;6.782;2023-06-10T11:19:58;7.65;;;6.00;;
9256;SDS011;4665;51.368;6.782;2023-06-10T11:22:24;5.78;;;5.15;;
9256;SDS011;4665;51.368;6.782;2023-06-10T11:24:49;5.75;;;5.25;;
9256;SDS011;4665;51.368;6.782;2023-06-10T11:27:19;7.32;;;5.20;;
9256;SDS011;4665;51.368;6.782;2023-06-10T11:29:58;9.10;;;5.40;;
9256;SDS011;4665;51.368;6.782;2023-06-10T11:32:43;6.15;;;5.57;;
9256;SDS011;4665;51.368;6.782;2023-06-10T11:35:16;5.03;;;4.63;;
9256;SDS011;4665;51.368;6.782;2023-06-10T11:37:43;6.00;;;5.50;;
9256;SDS011;4665;51.368;6.782;2023-06-10T11:40:10;7.25;;;5.60;;
9256;SDS011;4665;51.368;6.782;2023-06-10T11:42:38;6.10;;;5.60;;
9256;SDS011;4665;51.368;6.782;2023-06-10T11:45:06;5.80;;;5.28;;
9256;SDS011;4665;51.368;6.782;2023-06-10T11:47:33;6.10;;;5.47;;
9256;SDS011;4665;51.368;6.782;2023-06-10T11:49:59;5.45;;;5.03;;
9256;SDS011;4665;51.368;6.782;2023-06-10T11:52:28;5.70;;;5.30;;
9256;SDS011;4665;51.368;6.782;2023-06-10T11:54:58;5.75;;;5.35;;
9256;SDS011;4665;51.368;6.782;2023-06-10T11:57:24;5.78;;;5.38;;
9256;SDS011;4665;51.368;6.782;2023-06-10T11:59:49;5.90;;;5.40;;
9256;SDS011;4665;51.368;6.782;2023-06-10T12:02:18;5.72;;;5.32;;
9256;SDS011;4665;51.368;6.782;2023-06-10T12:04:44;5.97;;;5.38;;
9256;SDS011;4665;51.368;6.782;2023-06-10T12:07:16;5.68;;;5.28;;
9256;SDS011;4665;51.368;6.782;2023-06-10T12:09:42;8.85;;;5.72;;
9256;SDS011;4665;51.368;6.782;2023-06-10T12:12:08;5.95;;;4.95;;
9256;SDS011;4665;51.368;6.782;2023-06-10T12:14:54;7.15;;;5.28;;
9256;SDS011;4665;51.368;6.782;2023-06-10T12:17:22;6.80;;;5.80;;
9256;SDS011;4665;51.368;6.782;2023-06-10T12:19:48;6.63;;;5.85;;
9256;SDS011;4665;51.368;6.782;2023-06-10T12:22:14;6.50;;;5.78;;
9256;SDS011;4665;51.368;6.782;2023-06-10T12:24:57;6.13;;;5.72;;
9256;SDS011;4665;51.368;6.782;2023-06-10T12:27:28;6.13;;;5.53;;
9256;SDS011;4665;51.368;6.782;2023-06-10T12:29:57;5.88;;;5.47;;
9256;SDS011;4665;51.368;6.782;2023-06-10T12:32:39;6.07;;;5.57;;
9256;SDS011;4665;51.368;6.782;2023-06-10T12:35:06;7.97;;;5.60;;
9256;SDS011;4665;51.368;6.782;2023-06-10T12:37:32;6.00;;;5.40;;
9256;SDS011;4665;51.368;6.782;2023-06-10T12:40:04;5.95;;;5.43;;
9256;SDS011;4665;51.368;6.782;2023-06-10T12:42:38;5.35;;;4.95;;
9256;SDS011;4665;51.368;6.782;2023-06-10T12:45:04;7.85;;;5.57;;
9256;SDS011;4665;51.368;6.782;2023-06-10T12:47:32;6.43;;;5.93;;
9256;SDS011;4665;51.368;6.782;2023-06-10T12:50:09;6.00;;;5.40;;
9256;SDS011;4665;51.368;6.782;2023-06-10T12:52:37;6.63;;;6.03;;
9256;SDS011;4665;51.368;6.782;2023-06-10T12:55:02;6.32;;;5.80;;
9256;SDS011;4665;51.368;6.782;2023-06-10T12:57:29;6.10;;;5.70;;
9256;SDS011;4665;51.368;6.782;2023-06-10T12:59:54;6.10;;;5.60;;
9256;SDS011;4665;51.368;6.782;2023-06-10T13:02:25;5.97;;;5.55;;
9256;SDS011;4665;51.368;6.782;2023-06-10T13:04:51;7.20;;;5.90;;
9256;SDS011;4665;51.368;6.782;2023-06-10T13:07:16;5.43;;;5.00;;
9256;SDS011;4665;51.368;6.782;2023-06-10T13:09:42;7.32;;;6.03;;
9256;SDS011;4665;51.368;6.782;2023-06-10T13:12:08;7.55;;;5.75;;
9256;SDS011;4665;51.368;6.782;2023-06-10T13:14:36;5.93;;;5.43;;
9256;SDS011;4665;51.368;6.782;2023-06-10T13:17:04;6.07;;;5.68;;
9256;SDS011;4665;51.368;6.782;2023-06-10T13:19:33;6.78;;;5.88;;
9256;SDS011;4665;51.368;6.782;2023-06-10T13:21:58;6.00;;;5.57;;
9256;SDS011;4665;51.368;6.782;2023-06-10T13:24:24;6.22;;;5.72;;
9256;SDS011;4665;51.368;6.782;2023-06-10T13:26:50;8.45;;;6.28;;
9256;SDS011;4665;51.368;6.782;2023-06-10T13:29:15;5.80;;;5.43;;
9256;SDS011;4665;51.368;6.782;2023-06-10T13:31:41;6.60;;;5.75;;
9256;SDS011;4665;51.368;6.782;2023-06-10T13:34:09;6.30;;;5.80;;
9256;SDS011;4665;51.368;6.782;2023-06-10T13:36:35;8.25;;;5.82;;
9256;SDS011;4665;51.368;6.782;2023-06-10T13:39:01;6.07;;;5.68;;
9256;SDS011;4665;51.368;6.782;2023-06-10T13:41:26;5.95;;;5.45;;
9256;SDS011;4665;51.368;6.782;2023-06-10T13:43:54;5.80;;;5.50;;
9256;SDS011;4665;51.368;6.782;2023-06-10T13:46:19;6.38;;;5.85;;
9256;SDS011;4665;51.368;6.782;2023-06-10T13:48:46;5.68;;;5.15;;
9256;SDS011;4665;51.368;6.782;2023-06-10T13:51:12;5.93;;;5.43;;
9256;SDS011;4665;51.368;6.782;2023-06-10T13:53:37;6.13;;;5.63;;
9256;SDS011;4665;51.368;6.782;2023-06-10T13:56:03;6.07;;;5.45;;
9256;SDS011;4665;51.368;6.782;2023-06-10T13:58:28;5.78;;;5.38;;
9256;SDS011;4665;51.368;6.782;2023-06-10T14:00:54;6.53;;;6.03;;
9256;SDS011;4665;51.368;6.782;2023-06-10T14:03:19;6.57;;;5.68;;
9256;SDS011;4665;51.368;6.782;2023-06-10T14:05:45;5.78;;;5.38;;
9256;SDS011;4665;51.368;6.782;2023-06-10T14:08:10;5.80;;;5.40;;
9256;SDS011;4665;51.368;6.782;2023-06-10T14:10:36;6.10;;;5.70;;
9256;SDS011;4665;51.368;6.782;2023-06-10T14:13:02;5.90;;;5.40;;
9256;SDS011;4665;51.368;6.782;2023-06-10T14:15:27;6.32;;;5.88;;
9256;SDS011;4665;51.368;6.782;2023-06-10T14:17:53;7.32;;;5.40;;
9256;SDS011;4665;51.368;6.782;2023-06-10T14:20:18;6.82;;;5.65;;
9256;SDS011;4665;51.368;6.782;2023-06-10T14:22:44;6.55;;;5.95;;
9256;SDS011;4665;51.368;6.782;2023-06-10T14:25:09;7.50;;;6.30;;
9256;SDS011;4665;51.368;6.782;2023-06-10T14:27:36;6.63;;;6.03;;
9256;SDS011;4665;51.368;6.782;2023-06-10T14:30:01;5.93;;;5.45;;
9256;SDS011;4665;51.368;6.782;2023-06-10T14:32:28;5.65;;;5.25;;
9256;SDS011;4665;51.368;6.782;2023-06-10T14:34:53;6.20;;;5.80;;
9256;SDS011;4665;51.368;6.782;2023-06-10T14:37:18;5.60;;;5.20;;
9256;SDS011;4665;51.368;6.782;2023-06-10T14:39:44;6.07;;;5.50;;
9256;SDS011;4665;51.368;6.782;2023-06-10T14:42:09;6.07;;;5.68;;
9256;SDS011;4665;51.368;6.782;2023-06-10T14:44:35;7.25;;;5.80;;
9256;SDS011;4665;51.368;6.782;2023-06-10T14:47:01;6.22;;;5.70;;
9256;SDS011;4665;51.368;6.782;2023-06-10T14:49:26;5.90;;;5.43;;
9256;SDS011;4665;51.368;6.782;2023-06-10T14:51:51;5.50;;;5.15;;
9256;SDS011;4665;51.368;6.782;2023-06-10T14:54:17;5.93;;;5.47;;
9256;SDS011;4665;51.368;6.782;2023-06-10T14:56:42;6.20;;;5.57;;
9256;SDS011;4665;51.368;6.782;2023-06-10T14:59:08;5.78;;;5.35;;
9256;SDS011;4665;51.368;6.782;2023-06-10T15:01:33;6.82;;;5.55;;
9256;SDS011;4665;51.368;6.782;2023-06-10T15:03:59;6.30;;;5.80;;
9256;SDS011;4665;51.368;6.782;2023-06-10T15:06:24;6.25;;;5.70;;
9256;SDS011;4665;51.368;6.782;2023-06-10T15:08:51;6.25;;;5.65;;
9256;SDS011;4665;51.368;6.782;2023-06-10T15:11:19;6.43;;;5.93;;
9256;SDS011;4665;51.368;6.782;2023-06-10T15:13:46;5.68;;;5.22;;
9256;SDS011;4665;51.368;6.782;2023-06-10T15:16:11;6.28;;;5.78;;
9256;SDS011;4665;51.368;6.782;2023-06-10T15:18:37;6.43;;;5.82;;
9256;SDS011;4665;51.368;6.782;2023-06-10T15:21:03;5.85;;;5.45;;
9256;SDS011;4665;51.368;6.782;2023-06-10T15:23:29;5.80;;;5.40;;
9256;SDS011;4665;51.368;6.782;2023-06-10T15:25:55;5.55;;;5.25;;
9256;SDS011;4665;51.368;6.782;2023-06-10T15:28:20;5.88;;;5.38;;
9256;SDS011;4665;51.368;6.782;2023-06-10T15:30:46;8.65;;;5.97;;
9256;SDS011;4665;51.368;6.782;2023-06-10T15:33:11;6.05;;;5.55;;
9256;SDS011;4665;51.368;6.782;2023-06-10T15:35:36;5.65;;;5.32;;